createdAt,value
2023-08-15T00:03:07.883Z,23.65
2023-08-15T00:08:10.485Z,23.60
2023-08-15T00:13:14.323Z,23.53
2023-08-15T00:18:16.859Z,23.46
2023-08-15T00:23:19.444Z,23.42
2023-08-15T00:28:23.302Z,23.40
2023-08-15T00:33:25.879Z,23.37
2023-08-15T00:38:28.415Z,23.35
2023-08-15T00:43:32.239Z,23.31
2023-08-15T00:48:35.480Z,23.30
2023-08-15T00:53:38.200Z,23.25
2023-08-15T00:58:43.134Z,23.20
2023-08-15T01:03:46.999Z,23.15
2023-08-15T01:08:50.121Z,23.10
2023-08-15T01:14:01.798Z,23.05
2023-08-15T01:19:09.560Z,23.03
2023-08-15T01:24:13.627Z,22.99
2023-08-15T01:29:16.145Z,22.95
2023-08-15T01:34:23.002Z,22.91
2023-08-15T01:39:30.673Z,22.89
2023-08-15T01:44:35.648Z,22.85
2023-08-15T01:49:38.186Z,22.84
2023-08-15T01:54:42.320Z,22.83
2023-08-15T01:59:45.110Z,22.82
2023-08-15T02:04:47.689Z,22.78
2023-08-15T02:09:51.552Z,22.75
2023-08-15T02:14:54.071Z,22.73
2023-08-15T02:19:57.161Z,22.70
2023-08-15T02:25:01.004Z,22.70
2023-08-15T02:30:04.396Z,22.66
2023-08-15T02:35:08.089Z,22.61
2023-08-15T02:40:13.303Z,22.59
2023-08-15T02:45:15.919Z,22.56
2023-08-15T02:50:18.595Z,22.57
2023-08-15T02:55:22.473Z,22.50
2023-08-15T03:00:25.086Z,22.45
2023-08-15T03:05:27.592Z,22.41
2023-08-15T03:10:33.893Z,22.36
2023-08-15T03:15:37.844Z,22.26
2023-08-15T03:20:40.363Z,22.13
2023-08-15T03:25:44.205Z,21.94
2023-08-15T03:30:46.739Z,21.84
2023-08-15T03:35:50.548Z,21.77
2023-08-15T03:41:02.686Z,21.75
2023-08-15T03:46:07.190Z,21.69
2023-08-15T03:51:12.809Z,21.63
2023-08-15T03:56:16.969Z,21.62
2023-08-15T04:01:19.693Z,21.60
2023-08-15T04:06:22.271Z,21.58
2023-08-15T04:11:26.140Z,21.54
2023-08-15T04:16:29.804Z,21.52
2023-08-15T04:21:32.418Z,21.48
2023-08-15T04:26:36.254Z,21.48
2023-08-15T04:31:38.853Z,21.49
2023-08-15T04:36:45.004Z,21.46
2023-08-15T04:41:48.980Z,21.41
2023-08-15T04:46:51.490Z,21.38
2023-08-15T04:51:54.020Z,21.37
2023-08-15T04:56:57.915Z,21.32
2023-08-15T05:02:00.423Z,21.34
2023-08-15T05:07:02.954Z,21.36
2023-08-15T05:12:07.439Z,21.39
2023-08-15T05:17:09.965Z,21.45
2023-08-15T05:22:12.564Z,21.52
2023-08-15T05:27:16.568Z,21.63
2023-08-15T05:32:19.143Z,21.69
2023-08-15T05:37:22.018Z,21.80
2023-08-15T05:42:26.152Z,21.94
2023-08-15T05:47:28.792Z,22.06
2023-08-15T05:52:31.401Z,22.17
2023-08-15T05:57:35.303Z,22.33
2023-08-15T06:02:39.959Z,22.46
2023-08-15T06:07:42.957Z,22.61
2023-08-15T06:12:46.803Z,22.73
2023-08-15T06:17:49.420Z,22.89
2023-08-15T06:22:52.066Z,23.06
2023-08-15T06:27:55.939Z,23.28
2023-08-15T06:32:58.528Z,23.46
2023-08-15T06:38:01.067Z,23.72
2023-08-15T06:43:05.207Z,23.95
2023-08-15T06:48:08.338Z,24.20
2023-08-15T06:53:10.894Z,24.46
2023-08-15T06:58:14.750Z,24.71
2023-08-15T07:03:18.544Z,24.96
2023-08-15T07:08:21.108Z,25.23
2023-08-15T07:13:25.333Z,25.44
2023-08-15T07:18:27.850Z,25.63
2023-08-15T07:23:31.910Z,25.82
2023-08-15T07:28:35.969Z,26.02
2023-08-15T07:33:38.531Z,26.31
2023-08-15T07:38:41.173Z,26.52
2023-08-15T07:43:45.041Z,26.65
2023-08-15T07:48:47.670Z,26.84
2023-08-15T07:53:50.312Z,27.05
2023-08-15T07:58:54.142Z,27.22
2023-08-15T08:03:56.813Z,27.54
2023-08-15T08:09:00.060Z,27.83
2023-08-15T08:14:04.665Z,28.07
2023-08-15T08:19:07.274Z,28.20
2023-08-15T08:24:09.875Z,28.36
2023-08-15T08:29:13.742Z,28.42
2023-08-15T08:34:16.301Z,28.56
2023-08-15T08:39:31.282Z,28.70
2023-08-15T08:44:37.724Z,28.89
2023-08-15T08:49:40.390Z,29.10
2023-08-15T08:59:55.246Z,29.37
2023-08-15T09:04:57.894Z,29.42
2023-08-15T09:10:00.421Z,29.33
2023-08-15T09:15:06.557Z,29.29
2023-08-15T09:20:11.710Z,29.37
2023-08-15T09:25:16.369Z,29.40
2023-08-15T09:30:20.380Z,29.42
2023-08-15T09:35:23.163Z,29.42
2023-08-15T09:40:26.710Z,29.49
2023-08-15T09:45:31.690Z,29.44
2023-08-15T09:50:35.321Z,29.43
2023-08-15T09:55:39.631Z,29.44
2023-08-15T10:00:43.599Z,29.34
2023-08-15T10:05:49.648Z,29.31
2023-08-15T10:10:54.019Z,29.26
2023-08-15T10:15:58.906Z,29.10
2023-08-15T10:21:03.263Z,28.85
2023-08-15T10:26:07.005Z,28.60
2023-08-15T10:31:11.149Z,28.48
2023-08-15T10:36:13.820Z,28.36
2023-08-15T10:41:18.766Z,28.24
2023-08-15T10:46:31.959Z,28.19
2023-08-15T10:51:35.894Z,28.13
2023-08-15T10:56:40.134Z,28.16
2023-08-15T11:01:45.848Z,28.32
2023-08-15T11:06:50.393Z,28.57
2023-08-15T11:11:52.922Z,28.96
2023-08-15T11:16:56.854Z,29.18
2023-08-15T11:21:59.524Z,29.13
2023-08-15T11:27:02.523Z,29.16
2023-08-15T11:32:06.734Z,29.33
2023-08-15T11:37:12.335Z,29.49
2023-08-15T11:42:16.298Z,29.66
2023-08-15T11:47:20.820Z,30.01
2023-08-15T11:52:23.708Z,30.33
2023-08-15T11:57:35.608Z,30.20
2023-08-15T12:02:43.993Z,30.21
2023-08-15T12:07:48.325Z,30.07
2023-08-15T12:12:50.863Z,30.09
2023-08-15T12:17:54.726Z,30.38
2023-08-15T12:22:57.824Z,30.56
2023-08-15T12:28:00.383Z,30.76
2023-08-15T12:33:06.178Z,30.96
2023-08-15T12:38:08.932Z,31.03
2023-08-15T12:43:11.604Z,30.86
2023-08-15T12:48:15.486Z,30.78
2023-08-15T12:53:18.093Z,30.73
2023-08-15T12:58:20.626Z,30.81
2023-08-15T13:03:24.657Z,30.87
2023-08-15T13:08:27.325Z,31.08
2023-08-15T13:13:29.852Z,31.17
2023-08-15T13:18:33.829Z,31.31
2023-08-15T13:23:36.396Z,31.47
2023-08-15T13:28:38.905Z,31.56
2023-08-15T13:33:43.794Z,31.63
2023-08-15T13:38:46.408Z,31.55
2023-08-15T13:43:49.726Z,31.64
2023-08-15T13:48:53.568Z,31.52
2023-08-15T13:53:56.320Z,31.27
2023-08-15T13:58:58.856Z,31.09
2023-08-15T14:04:02.829Z,31.12
2023-08-15T14:09:06.010Z,31.25
2023-08-15T14:14:08.566Z,31.37
2023-08-15T14:19:13.619Z,31.42
2023-08-15T14:24:16.176Z,31.49
2023-08-15T14:29:18.697Z,31.66
2023-08-15T14:34:22.928Z,31.69
2023-08-15T14:39:25.457Z,31.69
2023-08-15T14:44:28.270Z,31.70
2023-08-15T14:49:32.239Z,31.76
2023-08-15T14:54:34.774Z,31.80
2023-08-15T14:59:37.350Z,31.71
2023-08-15T15:04:41.694Z,31.62
2023-08-15T15:09:44.200Z,31.45
2023-08-15T15:14:46.740Z,31.37
2023-08-15T15:19:50.649Z,31.32
2023-08-15T15:24:53.202Z,31.18
2023-08-15T15:29:55.844Z,31.04
2023-08-15T15:34:59.683Z,31.02
2023-08-15T15:40:02.363Z,31.08
2023-08-15T15:45:05.231Z,31.07
2023-08-15T15:50:09.772Z,30.78
2023-08-15T15:55:12.460Z,30.57
2023-08-15T16:00:17.259Z,30.39
2023-08-15T16:05:21.167Z,30.32
2023-08-15T16:10:23.776Z,30.23
2023-08-15T16:15:26.411Z,30.22
2023-08-15T16:20:30.265Z,30.25
2023-08-15T16:25:32.932Z,30.13
2023-08-15T16:30:35.455Z,29.97
2023-08-15T16:35:39.444Z,29.38
2023-08-15T16:40:42.034Z,28.71
2023-08-15T16:45:46.480Z,28.14
2023-08-15T16:50:50.549Z,27.80
2023-08-15T16:55:53.181Z,27.59
2023-08-15T17:00:55.716Z,27.22
2023-08-15T17:06:00.746Z,27.14
2023-08-15T17:11:03.299Z,27.01
2023-08-15T17:16:07.107Z,26.83
2023-08-15T17:21:10.986Z,26.76
2023-08-15T17:26:13.560Z,26.63
2023-08-15T17:31:16.916Z,26.37
2023-08-15T17:36:20.834Z,26.11
2023-08-15T17:41:23.336Z,25.79
2023-08-15T17:46:25.923Z,25.63
2023-08-15T17:51:29.834Z,25.56
2023-08-15T17:56:32.377Z,25.49
2023-08-15T18:01:36.125Z,25.35
2023-08-15T18:06:40.036Z,25.14
2023-08-15T18:11:42.630Z,25.11
2023-08-15T18:16:46.340Z,25.08
2023-08-15T18:21:51.656Z,25.06
2023-08-15T18:26:54.259Z,24.98
2023-08-15T18:31:57.227Z,24.96
2023-08-15T18:37:01.128Z,24.91
2023-08-15T18:42:03.757Z,24.97
2023-08-15T18:47:07.397Z,25.05
2023-08-15T18:52:11.333Z,25.06
2023-08-15T18:57:13.868Z,25.04
2023-08-15T19:02:16.400Z,25.02
2023-08-15T19:07:20.236Z,24.97
2023-08-15T19:12:23.338Z,24.91
2023-08-15T19:17:26.085Z,24.77
2023-08-15T19:22:29.980Z,24.58
2023-08-15T19:27:32.558Z,24.43
2023-08-15T19:32:35.432Z,24.36
2023-08-15T19:37:39.341Z,24.24
2023-08-15T19:42:43.426Z,24.10
2023-08-15T19:47:45.988Z,23.97
2023-08-15T19:52:49.947Z,23.92
2023-08-15T19:57:52.499Z,23.83
2023-08-15T20:02:55.032Z,23.76
2023-08-15T20:07:59.242Z,23.59
2023-08-15T20:13:01.783Z,23.41
2023-08-15T20:18:04.602Z,23.26
2023-08-15T20:23:08.498Z,23.12
2023-08-15T20:28:12.419Z,23.15
2023-08-15T20:33:15.085Z,23.23
2023-08-15T20:38:20.188Z,23.30
2023-08-15T20:43:22.704Z,23.33
2023-08-15T20:48:25.242Z,23.33
2023-08-15T20:53:29.087Z,23.36
2023-08-15T20:58:33.106Z,23.34
2023-08-15T21:03:35.769Z,23.33
2023-08-15T21:08:39.606Z,23.30
2023-08-15T21:13:42.140Z,23.19
2023-08-15T21:18:44.669Z,23.16
2023-08-15T21:23:48.525Z,23.12
2023-08-15T21:28:51.057Z,23.02
2023-08-15T21:33:53.564Z,22.94
2023-08-15T21:38:57.411Z,22.90
2023-08-15T21:43:59.928Z,22.90
2023-08-15T21:49:02.491Z,22.92
2023-08-15T21:54:06.496Z,22.83
2023-08-15T21:59:09.022Z,22.69
2023-08-15T22:04:11.571Z,22.52
2023-08-15T22:09:15.454Z,22.42
2023-08-15T22:14:18.196Z,22.34
2023-08-15T22:19:20.766Z,22.24
2023-08-15T22:24:24.772Z,22.25
2023-08-15T22:29:27.525Z,22.24
2023-08-15T22:34:30.081Z,22.25
2023-08-15T22:39:33.943Z,22.26
2023-08-15T22:44:36.556Z,22.28
2023-08-15T22:49:39.117Z,22.27
2023-08-15T22:54:43.059Z,22.25
2023-08-15T22:59:45.604Z,22.24
2023-08-15T23:04:48.242Z,22.20
2023-08-15T23:09:52.136Z,22.18
2023-08-15T23:14:54.917Z,22.12
2023-08-15T23:19:57.471Z,22.07
2023-08-15T23:25:03.668Z,22.00
2023-08-15T23:30:07.628Z,21.93
2023-08-15T23:35:13.604Z,21.88
2023-08-15T23:40:19.377Z,21.76
2023-08-15T23:45:21.938Z,21.69
2023-08-15T23:50:24.475Z,21.67
2023-08-15T23:55:28.601Z,21.68
